Weather at Sharurah Airport

Public forecast

Using degrees Celsius for public forecast. Weather courtesy of forecast.io.

Current aviation weather report (METAR) for Sharurah Airport

Retrieved 2021/04/12 12:00 UTC (26 minutes ago):

OESH 121200Z 09009KT CAVOK 38/00 Q1010 NOSIG

Aviation forecast (TAF) for Sharurah Airport

Retrieved 2021/04/12 12:06 UTC (20 minutes ago):

TAF OESH 121100Z 1212/1318 10010KT CAVOK BECMG 1218/1220 19008KT